Gray Gables, Washington
Current Conditions -  °F | °C
As of 8:53 PM on Wednesday 22 Oct 2014 (Local Time) from KHQM Reporting Station
Light Rain Light Rain  
Wind Chill: 57°   Ceiling: 3300
Heat Index: 57°   Visibility: 7mi
Dew Point: 55°   Wind: 9mph
Humidity: 93%   Direction: 190°S
Pressure: 29.61"   Gusts: NA
Location:  47.0202°N, 123.878°W
Report Text: KHQM 230353Z AUTO 19008KT 7SM -RA SCT019 SCT025 BKN033 14/13 A2961 RMK AO2 RAB52 SLP031 P0000 T01390128
Loading
Personal Weather Stations






























Interactive Weather Map
Tropical Storm Tracking
New forecast layout! Learn more

10-Day Weather Forecast

Advertisements
Track Severe Weather on mobile